• Join FlightAware (Why Join?)
  • Login
  • US Flag 
11:06AM EDT


 

Airport Tracker/Info


-or-


 

Live Flight TrackerFlight Track Log ✈ N6198F ✈ 29-Jun-2013 ✈ KGAD - KHSV

Flight Track Log - Related Links

Times and Time Zones

All times are in EDT time to prevent confusion due to time zone crossing. See the N6198F flight status page for this flight to view local times or setup timezone preferences in your user account.

Time Position Orientation Groundspeed Altitude Reporting Facility
EDT Latitude Longitude Course Direction KTS MPH feet Rate Location/Type
10:53AM 34.1086 -86.2342 320° Northwest 108 124 4,500  Level Atlanta Center
10:54AM 34.1292 -86.2522 324° Northwest 104 120 4,500 60 Level Atlanta Center
10:55AM 34.1436 -86.2675 319° Northwest 103 119 4,600  Climbing Atlanta Center
10:56AM 34.1683 -86.2883 325° Northwest 101 116 4,600  Level Atlanta Center
10:57AM 34.1947 -86.3217 314° West 99 114 4,600  Level Atlanta Center
10:59AM 34.0901 -86.2093 320° Northwest  Level Estimated
10:59AM 34.2270 -86.3493 325° Northwest  Level FlightAware Approximate
11:06AM 34.3914 -86.5183 318° Northwest  Level FlightAware Approximate
11:07AM 34.4143 -86.5432 318° Northwest  Level FlightAware Approximate
11:08AM 34.4373 -86.5681 318° Northwest  Level FlightAware Approximate
11:09AM 34.4602 -86.5930 318° Northwest  Level FlightAware Approximate
11:10AM 34.4837 -86.6171 321° Northwest  Level FlightAware Approximate
11:11AM 34.5075 -86.6408 321° Northwest  Level FlightAware Approximate
11:12AM 34.5317 -86.6650 321° Northwest  Level FlightAware Approximate
11:13AM 34.5559 -86.6892 321° Northwest  Level FlightAware Approximate
11:14AM 34.5801 -86.7134 321° Northwest  Level FlightAware Approximate
11:15AM 34.6043 -86.7376 321° Northwest  Level FlightAware Approximate
11:16AM 34.6284 -86.7618 321° Northwest  Level FlightAware Approximate
11:17AM 34.6333 -86.7667 321° Northwest  Level FlightAware Approximate
11:18AM 34.6372 -86.7751 321° Northwest  Level Estimated
11:19AM 34.6372 -86.7751 321° Northwest  Level Estimated
11:20AM 34.6372 -86.7751 321° Northwest  Level Estimated
11:21AM 34.6372 -86.7751 321° Northwest  Level Estimated
11:22AM 34.6372 -86.7751 321° Northwest  Level Estimated
11:23AM 34.6372 -86.7751 321° Northwest  Level Estimated
11:24AM 34.6372 -86.7751 321° Northwest  Level Estimated
11:25AM 34.6372 -86.7751 321° Northwest  Level Estimated
11:26AM 34.6372 -86.7751 321° Northwest  Level Estimated
11:27AM 34.6372 -86.7751 321° Northwest  Level Estimated
11:28AM 34.6372 -86.7751 321° Northwest  Level Estimated
11:29AM 34.6372 -86.7751 321° Northwest  Level Estimated
11:30AM 34.6372 -86.7751 321° Northwest  Level Estimated